Time;durP1;ratioP1;P1;durP2;ratioP2;P2;SDS_P1;SDS_P2;PMS_P1;PMS_P2;Temp;Humidity;BMP_temperature;BMP_pressure;BME280_temperature;BME280_humidity;BME280_pressure;Samples;Min_cycle;Max_cycle;Signal;HPM_P1;HPM_P2
2021/08/31 00:00:09;;;;;;;44.08;32.47;;;21.90;83.80;;;;;;5140167;27;20058;-38
2021/08/31 00:02:35;;;;;;;43.47;35.17;;;21.80;83.80;;;;;;5139916;27;20039;-38
2021/08/31 00:05:00;;;;;;;37.50;31.63;;;21.90;83.70;;;;;;5140236;27;20306;-39
2021/08/31 00:07:26;;;;;;;33.42;29.75;;;21.90;83.70;;;;;;5139591;27;20031;-36
2021/08/31 00:09:52;;;;;;;37.47;28.85;;;21.90;83.40;;;;;;5140351;27;20068;-39
2021/08/31 00:12:17;;;;;;;33.35;29.08;;;21.90;83.30;;;;;;5139661;27;20059;-36
2021/08/31 00:14:43;;;;;;;32.55;26.23;;;21.90;83.20;;;;;;5139979;27;20053;-39
2021/08/31 00:17:09;;;;;;;42.28;36.42;;;21.90;83.20;;;;;;5140090;27;20110;-40
2021/08/31 00:19:35;;;;;;;38.50;30.35;;;21.90;83.40;;;;;;5139463;27;20106;-39
2021/08/31 00:22:01;;;;;;;35.22;31.17;;;22.00;83.40;;;;;;5139910;27;20062;-38
2021/08/31 00:24:26;;;;;;;38.72;30.58;;;22.00;83.20;;;;;;5138677;27;20319;-38
2021/08/31 00:26:52;;;;;;;38.78;29.40;;;22.00;83.10;;;;;;5139437;27;20023;-36
2021/08/31 00:29:18;;;;;;;44.22;35.40;;;22.00;83.00;;;;;;5139913;27;20026;-45
2021/08/31 00:31:43;;;;;;;46.63;33.35;;;22.00;83.20;;;;;;5139625;27;20406;-40
2021/08/31 00:34:09;;;;;;;44.45;33.15;;;22.00;83.10;;;;;;5139454;27;20019;-36
2021/08/31 00:36:35;;;;;;;46.95;32.78;;;22.00;82.90;;;;;;5120973;27;20023;-39
2021/08/31 00:39:00;;;;;;;44.63;32.25;;;22.00;83.00;;;;;;5139558;27;20402;-36
2021/08/31 00:41:26;;;;;;;48.38;33.78;;;22.00;82.90;;;;;;5139423;27;20127;-36
2021/08/31 00:43:53;;;;;;;49.28;33.83;;;22.00;83.00;;;;;;5139797;27;20295;-38
2021/08/31 00:46:21;;;;;;;45.92;35.08;;;21.90;83.10;;;;;;5139118;27;20027;-37
2021/08/31 00:48:49;;;;;;;39.10;32.55;;;22.00;82.90;;;;;;5139682;27;20341;-40
2021/08/31 00:51:20;;;;;;;43.30;32.35;;;21.90;82.80;;;;;;5139230;27;20027;-37
2021/08/31 00:53:48;;;;;;;41.50;33.25;;;21.90;82.80;;;;;;5139134;27;20054;-37
2021/08/31 00:56:14;;;;;;;54.97;42.42;;;21.90;83.30;;;;;;5138851;27;20102;-38
2021/08/31 00:58:40;;;;;;;53.22;38.67;;;22.00;82.60;;;;;;5139403;27;20054;-37
2021/08/31 01:01:06;;;;;;;46.95;38.65;;;21.90;82.60;;;;;;5139222;27;20295;-39
2021/08/31 01:03:32;;;;;;;48.30;35.85;;;21.90;82.60;;;;;;5139246;27;20034;-36
2021/08/31 01:05:59;;;;;;;54.42;42.28;;;21.90;82.70;;;;;;5138722;27;20042;-39
2021/08/31 01:08:25;;;;;;;44.92;33.65;;;21.90;82.70;;;;;;5138972;27;20031;-36
2021/08/31 01:10:53;;;;;;;49.97;40.80;;;21.90;82.70;;;;;;5138493;27;20019;-39
2021/08/31 01:13:20;;;;;;;40.47;34.38;;;21.90;82.80;;;;;;5139052;27;20373;-39
2021/08/31 01:15:46;;;;;;;41.33;32.53;;;21.90;82.80;;;;;;5138580;27;20031;-38
2021/08/31 01:18:14;;;;;;;52.60;37.95;;;21.90;82.80;;;;;;5138367;27;20107;-39
2021/08/31 01:20:41;;;;;;;46.35;40.47;;;21.90;83.40;;;;;;5138673;27;20038;-36
2021/08/31 01:23:07;;;;;;;45.92;33.92;;;21.90;82.70;;;;;;5138873;27;20061;-38
2021/08/31 01:25:32;;;;;;;49.35;35.83;;;21.90;82.70;;;;;;5138186;27;20058;-37
2021/08/31 01:27:58;;;;;;;55.45;39.35;;;21.90;82.70;;;;;;5138832;27;20085;-40
2021/08/31 01:30:23;;;;;;;53.78;37.28;;;21.90;82.60;;;;;;5138069;27;20114;-37
2021/08/31 01:32:49;;;;;;;50.25;34.70;;;21.80;82.60;;;;;;5138587;27;20031;-37
2021/08/31 01:35:15;;;;;;;54.20;37.28;;;21.80;82.60;;;;;;5138106;27;20023;-39
2021/08/31 01:37:40;;;;;;;50.65;36.22;;;21.80;82.70;;;;;;5138086;27;20034;-36
2021/08/31 01:40:06;;;;;;;54.15;38.78;;;21.80;82.50;;;;;;5138274;27;20027;-39
2021/08/31 01:42:32;;;;;;;51.20;34.97;;;21.80;82.60;;;;;;5138114;27;20035;-38
2021/08/31 01:44:58;;;;;;;50.63;35.90;;;21.70;82.70;;;;;;5154310;27;20353;-39
2021/08/31 01:47:23;;;;;;;47.55;34.42;;;21.70;82.90;;;;;;5137831;27;20033;-38
2021/08/31 01:49:49;;;;;;;47.75;34.88;;;21.70;83.00;;;;;;5138067;27;20349;-37
2021/08/31 01:52:15;;;;;;;52.72;35.35;;;21.60;83.10;;;;;;5137882;27;20034;-36
2021/08/31 01:54:40;;;;;;;50.88;34.55;;;21.60;83.30;;;;;;5137838;27;20430;-39
2021/08/31 01:57:06;;;;;;;56.40;36.40;;;21.60;83.30;;;;;;5138031;27;20023;-36
2021/08/31 01:59:32;;;;;;;50.28;34.22;;;21.60;83.40;;;;;;5137602;27;20023;-36
2021/08/31 02:01:58;;;;;;;54.35;33.45;;;21.60;83.20;;;;;;5137628;27;20039;-39
2021/08/31 02:04:24;;;;;;;46.13;33.42;;;21.60;83.10;;;;;;5137489;27;20034;-36
2021/08/31 02:06:49;;;;;;;45.78;30.90;;;21.50;83.10;;;;;;5137689;27;20308;-38
2021/08/31 02:09:15;;;;;;;47.45;30.42;;;21.50;83.00;;;;;;5137691;27;20253;-39
2021/08/31 02:11:41;;;;;;;46.72;30.25;;;21.50;83.00;;;;;;5137722;27;20106;-38
2021/08/31 02:14:06;;;;;;;45.05;30.73;;;21.40;82.90;;;;;;5137532;27;20326;-38
2021/08/31 02:16:32;;;;;;;51.42;32.42;;;21.40;83.00;;;;;;5137596;27;20468;-37
2021/08/31 02:18:57;;;;;;;47.35;30.35;;;21.40;83.10;;;;;;5137754;27;20042;-37
2021/08/31 02:21:23;;;;;;;50.10;31.95;;;21.40;83.20;;;;;;5137534;27;20071;-38
2021/08/31 02:23:49;;;;;;;53.45;31.65;;;21.30;82.90;;;;;;5137799;27;20065;-36
2021/08/31 02:26:14;;;;;;;52.28;34.28;;;21.30;82.90;;;;;;5137159;27;20027;-37
2021/08/31 02:28:40;;;;;;;56.05;31.92;;;21.30;82.90;;;;;;5137600;27;20070;-36
2021/08/31 02:31:06;;;;;;;51.35;35.28;;;21.20;82.70;;;;;;5137182;27;20024;-36
2021/08/31 02:33:31;;;;;;;54.22;32.97;;;21.20;83.00;;;;;;5137423;27;20080;-36
2021/08/31 02:35:57;;;;;;;55.90;33.25;;;21.20;83.00;;;;;;5137318;27;20027;-39
2021/08/31 02:38:22;;;;;;;60.42;31.90;;;21.10;83.00;;;;;;5137200;27;20046;-36
2021/08/31 02:40:48;;;;;;;42.63;26.90;;;21.10;82.90;;;;;;5137059;27;20071;-36
2021/08/31 02:43:14;;;;;;;52.95;29.83;;;21.10;83.10;;;;;;5137348;27;20055;-37
2021/08/31 02:45:39;;;;;;;45.85;28.20;;;21.00;82.80;;;;;;5136778;27;20041;-36
2021/08/31 02:48:05;;;;;;;52.95;31.10;;;20.90;82.90;;;;;;5136363;27;20027;-36
2021/08/31 02:50:31;;;;;;;38.88;25.30;;;20.90;82.80;;;;;;5136665;27;20024;-38
2021/08/31 02:52:57;;;;;;;56.92;31.02;;;20.90;83.30;;;;;;5137196;27;20034;-36
2021/08/31 02:55:22;;;;;;;47.90;27.42;;;20.80;83.00;;;;;;5118508;27;20080;-36
2021/08/31 02:57:48;;;;;;;45.55;26.77;;;20.80;82.90;;;;;;5137097;27;20034;-36
2021/08/31 03:00:18;;;;;;;48.28;30.67;;;20.70;83.20;;;;;;5136832;27;20030;-39
2021/08/31 03:02:45;;;;;;;53.70;29.67;;;20.70;83.10;;;;;;5137156;28;20059;-38
2021/08/31 03:05:11;;;;;;;46.70;26.70;;;20.60;83.10;;;;;;5136654;28;20078;-37
2021/08/31 03:07:37;;;;;;;41.95;26.33;;;20.60;82.90;;;;;;5136933;28;20027;-39
2021/08/31 03:10:03;;;;;;;38.40;26.55;;;20.50;83.10;;;;;;5137064;28;20030;-39
2021/08/31 03:12:29;;;;;;;46.95;28.80;;;20.50;83.30;;;;;;5136519;28;20142;-37
2021/08/31 03:14:54;;;;;;;47.78;28.15;;;20.40;83.50;;;;;;5136810;28;20035;-35
2021/08/31 03:17:20;;;;;;;52.90;28.98;;;20.40;83.70;;;;;;5136600;28;20087;-37
2021/08/31 03:19:46;;;;;;;44.33;27.02;;;20.40;83.70;;;;;;5136683;28;20404;-36
2021/08/31 03:22:11;;;;;;;51.63;30.30;;;20.40;84.00;;;;;;5136808;28;20046;-35
2021/08/31 03:24:37;;;;;;;51.10;29.80;;;20.40;83.80;;;;;;5136435;28;20024;-37
2021/08/31 03:27:05;;;;;;;50.58;31.13;;;20.40;84.00;;;;;;5136809;28;20023;-35
2021/08/31 03:29:31;;;;;;;48.85;29.80;;;20.40;83.80;;;;;;5136706;28;20023;-38
2021/08/31 03:31:56;;;;;;;49.90;29.02;;;20.30;84.00;;;;;;5136435;28;20136;-35
2021/08/31 03:34:22;;;;;;;46.03;28.63;;;20.30;84.20;;;;;;5136466;28;20046;-35
2021/08/31 03:36:49;;;;;;;49.15;28.60;;;20.30;84.00;;;;;;5136384;28;20033;-35
2021/08/31 03:39:15;;;;;;;41.80;27.65;;;20.20;84.00;;;;;;5136152;28;20038;-36
2021/08/31 03:41:41;;;;;;;46.42;28.15;;;20.20;84.00;;;;;;5136341;28;20023;-34
2021/08/31 03:44:07;;;;;;;46.72;28.35;;;20.20;84.10;;;;;;5136330;28;20360;-35
2021/08/31 03:46:32;;;;;;;49.13;27.98;;;20.10;84.10;;;;;;5136347;28;20072;-38
2021/08/31 03:48:58;;;;;;;43.65;27.15;;;20.10;84.40;;;;;;5136517;28;20326;-37
2021/08/31 03:51:24;;;;;;;40.97;25.75;;;20.00;84.50;;;;;;5136226;28;20025;-38
2021/08/31 03:53:50;;;;;;;43.10;30.05;;;20.00;84.50;;;;;;5136485;28;20043;-36
2021/08/31 03:56:15;;;;;;;38.40;26.40;;;20.00;84.60;;;;;;5136218;28;20106;-38
2021/08/31 03:58:41;;;;;;;41.03;26.98;;;20.00;84.80;;;;;;5138143;27;20034;-38
2021/08/31 04:01:06;;;;;;;41.22;26.38;;;20.00;85.10;;;;;;5140110;27;20023;-37
2021/08/31 04:03:32;;;;;;;43.10;28.73;;;20.00;85.00;;;;;;5140316;27;20068;-35
2021/08/31 04:05:58;;;;;;;36.40;25.50;;;19.90;84.90;;;;;;5139692;27;20099;-36
2021/08/31 04:08:23;;;;;;;41.20;28.67;;;19.90;85.80;;;;;;5140142;27;20031;-36
2021/08/31 04:10:49;;;;;;;41.00;26.45;;;19.90;85.50;;;;;;5139984;27;20030;-38
2021/08/31 04:13:18;;;;;;;40.65;27.42;;;19.90;85.10;;;;;;5140068;27;20045;-35
2021/08/31 04:15:44;;;;;;;44.90;27.60;;;19.80;85.20;;;;;;5156135;27;20035;-37
2021/08/31 04:18:10;;;;;;;36.97;27.38;;;19.80;85.30;;;;;;5139948;27;20035;-37
2021/08/31 04:20:36;;;;;;;37.08;25.15;;;19.80;85.50;;;;;;5139627;27;20027;-35
2021/08/31 04:23:02;;;;;;;39.38;28.00;;;19.80;85.80;;;;;;5139894;27;20031;-35
2021/08/31 04:25:28;;;;;;;41.47;27.35;;;19.80;86.00;;;;;;5139510;27;20111;-35
2021/08/31 04:27:53;;;;;;;35.63;26.45;;;19.90;85.90;;;;;;5139571;27;20398;-36
2021/08/31 04:30:19;;;;;;;34.88;25.55;;;19.90;85.70;;;;;;5139556;27;20314;-36
2021/08/31 04:32:46;;;;;;;35.97;24.50;;;19.90;86.00;;;;;;5139811;27;20030;-37
2021/08/31 04:35:12;;;;;;;35.83;25.58;;;20.00;86.70;;;;;;5139647;27;20034;-36
2021/08/31 04:37:38;;;;;;;40.55;26.55;;;20.00;86.60;;;;;;5139395;27;20314;-36
2021/08/31 04:40:04;;;;;;;38.78;25.80;;;20.10;85.50;;;;;;5139388;27;20027;-35
2021/08/31 04:42:30;;;;;;;33.78;26.48;;;20.30;84.90;;;;;;5139027;27;20030;-35
2021/08/31 04:44:55;;;;;;;37.42;23.00;;;20.30;84.00;;;;;;5138943;27;20023;-38
2021/08/31 04:47:21;;;;;;;31.23;23.92;;;20.30;84.10;;;;;;5139022;27;20024;-35
2021/08/31 04:49:47;;;;;;;33.92;24.33;;;20.40;83.70;;;;;;5138915;27;20027;-38
2021/08/31 04:52:13;;;;;;;33.42;22.95;;;20.40;83.50;;;;;;5138703;27;20027;-36
2021/08/31 04:54:39;;;;;;;34.47;24.00;;;20.50;83.30;;;;;;5138715;27;20051;-35
2021/08/31 04:57:05;;;;;;;33.17;22.48;;;20.50;82.80;;;;;;5138707;27;20042;-36
2021/08/31 04:59:31;;;;;;;44.88;32.92;;;20.60;82.60;;;;;;5138754;27;20023;-37
2021/08/31 05:01:56;;;;;;;31.52;22.20;;;20.60;82.40;;;;;;5139038;27;20532;-38
2021/08/31 05:04:28;;;;;;;37.78;29.88;;;20.70;81.80;;;;;;5138413;27;20339;-39
2021/08/31 05:06:54;;;;;;;30.23;22.27;;;20.70;82.00;;;;;;5138739;27;20104;-38
2021/08/31 05:09:20;;;;;;;29.90;21.08;;;20.70;81.30;;;;;;5138127;27;20024;-38
2021/08/31 05:11:46;;;;;;;28.75;21.30;;;20.70;80.80;;;;;;5138280;27;20019;-38
2021/08/31 05:14:11;;;;;;;26.65;21.10;;;20.70;80.90;;;;;;5138493;27;20058;-36
2021/08/31 05:16:37;;;;;;;27.55;21.00;;;20.70;81.10;;;;;;5138331;27;20110;-36
2021/08/31 05:19:03;;;;;;;29.55;22.42;;;20.70;80.70;;;;;;5138410;27;20047;-36
2021/08/31 05:21:28;;;;;;;25.05;19.08;;;20.70;80.90;;;;;;5138313;27;20436;-38
2021/08/31 05:23:56;;;;;;;24.83;19.38;;;20.70;80.90;;;;;;5138825;27;20023;-36
2021/08/31 05:26:21;;;;;;;23.20;17.67;;;20.70;81.00;;;;;;5138059;27;20318;-38
2021/08/31 05:28:47;;;;;;;27.70;19.92;;;20.70;80.90;;;;;;5138613;27;20106;-38
2021/08/31 05:31:12;;;;;;;26.77;17.58;;;20.70;80.50;;;;;;5137975;27;20430;-40
2021/08/31 05:33:38;;;;;;;25.42;18.35;;;20.70;80.20;;;;;;5138165;27;20076;-36
2021/08/31 05:36:04;;;;;;;25.45;19.90;;;20.70;80.50;;;;;;5137804;27;20038;-37
2021/08/31 05:38:29;;;;;;;27.63;19.27;;;20.80;80.20;;;;;;5138112;27;20031;-36
2021/08/31 05:40:55;;;;;;;26.38;19.33;;;20.80;80.20;;;;;;5137965;27;20027;-37
2021/08/31 05:43:21;;;;;;;31.48;19.30;;;20.80;80.30;;;;;;5138015;27;20482;-38
2021/08/31 05:45:47;;;;;;;24.92;18.90;;;20.80;80.20;;;;;;5137460;27;20027;-36
2021/08/31 05:48:12;;;;;;;21.23;15.55;;;20.80;79.70;;;;;;5137931;27;20110;-39
2021/08/31 05:50:38;;;;;;;21.58;17.20;;;20.90;79.60;;;;;;5137432;27;20096;-37
2021/08/31 05:53:04;;;;;;;19.83;16.80;;;20.90;79.80;;;;;;5137858;27;20047;-39
2021/08/31 05:55:29;;;;;;;25.92;19.67;;;20.90;79.30;;;;;;5137421;27;20030;-37
2021/08/31 05:57:55;;;;;;;23.55;16.90;;;20.90;79.00;;;;;;5137150;27;20107;-37
2021/08/31 06:00:20;;;;;;;22.90;17.08;;;21.00;79.50;;;;;;5137336;27;20034;-38
2021/08/31 06:02:46;;;;;;;25.77;18.10;;;21.00;78.80;;;;;;5137354;27;20131;-38
2021/08/31 06:05:12;;;;;;;24.40;17.25;;;21.00;78.50;;;;;;5137161;27;20392;-36
2021/08/31 06:07:41;;;;;;;30.08;17.60;;;21.00;78.30;;;;;;5137300;27;20106;-38
2021/08/31 06:10:08;;;;;;;21.05;16.65;;;21.10;78.60;;;;;;5137567;27;20054;-34
2021/08/31 06:12:34;;;;;;;26.90;19.90;;;21.10;78.40;;;;;;5136996;27;20047;-38
2021/08/31 06:15:00;;;;;;;26.75;17.40;;;21.10;78.40;;;;;;5137298;27;20115;-35
2021/08/31 06:17:27;;;;;;;24.00;19.05;;;21.10;78.60;;;;;;5137195;27;20122;-35
2021/08/31 06:19:52;;;;;;;26.58;18.65;;;21.20;78.40;;;;;;5136847;27;20114;-35
2021/08/31 06:22:18;;;;;;;27.33;20.13;;;21.20;78.20;;;;;;5135920;27;20117;-35
2021/08/31 06:24:45;;;;;;;26.17;20.15;;;21.30;77.80;;;;;;5137237;27;20027;-35
2021/08/31 06:27:11;;;;;;;31.48;22.42;;;21.30;77.70;;;;;;5136997;27;20306;-35
2021/08/31 06:29:37;;;;;;;27.63;20.48;;;21.30;77.60;;;;;;5136761;27;20015;-39
2021/08/31 06:32:03;;;;;;;26.92;20.05;;;21.40;77.20;;;;;;5137019;27;20076;-35
2021/08/31 06:34:29;;;;;;;26.15;19.20;;;21.50;77.20;;;;;;5136529;27;20027;-38
2021/08/31 06:36:55;;;;;;;27.02;20.23;;;21.60;77.10;;;;;;5136866;27;20317;-39
2021/08/31 06:39:20;;;;;;;26.75;20.70;;;21.60;76.80;;;;;;5136758;27;20075;-38
2021/08/31 06:41:46;;;;;;;25.40;18.55;;;21.70;76.80;;;;;;5136719;27;20023;-35
2021/08/31 06:44:12;;;;;;;26.15;17.67;;;21.70;75.80;;;;;;5136526;27;20038;-37
2021/08/31 06:46:38;;;;;;;19.23;15.15;;;21.80;75.20;;;;;;5136687;27;20083;-38
2021/08/31 06:49:03;;;;;;;17.60;14.38;;;21.80;74.70;;;;;;5137014;27;20023;-36
2021/08/31 06:51:29;;;;;;;16.02;13.40;;;21.80;74.80;;;;;;5136584;27;20306;-37
2021/08/31 06:53:55;;;;;;;15.02;12.80;;;21.90;74.70;;;;;;5136626;27;20383;-39
2021/08/31 06:56:20;;;;;;;17.20;12.38;;;21.90;74.20;;;;;;5135499;27;20034;-40
2021/08/31 06:58:50;;;;;;;16.55;12.95;;;22.00;74.00;;;;;;5135957;27;20110;-40
2021/08/31 07:01:15;;;;;;;18.88;13.02;;;22.00;73.60;;;;;;5136421;27;20334;-36
2021/08/31 07:03:41;;;;;;;15.25;11.60;;;22.10;73.10;;;;;;5136738;27;20409;-40
2021/08/31 07:06:07;;;;;;;16.38;11.90;;;22.10;73.20;;;;;;5118185;28;20050;-37
2021/08/31 07:08:32;;;;;;;14.25;11.25;;;22.20;73.00;;;;;;5136755;28;20411;-37
2021/08/31 07:10:58;;;;;;;14.15;10.77;;;22.20;72.60;;;;;;5136749;28;20026;-36
2021/08/31 07:13:25;;;;;;;15.25;11.73;;;22.30;71.30;;;;;;5136618;28;20035;-38
2021/08/31 07:15:51;;;;;;;13.68;11.02;;;22.30;71.40;;;;;;5136701;28;20348;-39
2021/08/31 07:18:17;;;;;;;13.60;10.48;;;22.30;71.60;;;;;;5136606;28;20035;-35
2021/08/31 07:20:43;;;;;;;17.52;10.45;;;22.40;71.30;;;;;;5136249;28;20067;-37
2021/08/31 07:23:11;;;;;;;11.55;8.82;;;22.40;71.30;;;;;;5152647;27;20058;-35
2021/08/31 07:25:37;;;;;;;15.70;8.20;;;22.40;70.30;;;;;;5136123;28;20042;-38
2021/08/31 07:28:03;;;;;;;10.57;7.20;;;22.40;68.90;;;;;;5136581;28;20027;-35
2021/08/31 07:30:28;;;;;;;10.43;8.60;;;22.40;68.10;;;;;;5136068;28;20031;-34
2021/08/31 07:32:54;;;;;;;12.85;7.70;;;22.40;69.60;;;;;;5137303;27;20027;-35
2021/08/31 07:35:20;;;;;;;10.73;8.35;;;22.50;69.20;;;;;;5140347;27;20042;-37
2021/08/31 07:37:46;;;;;;;9.55;7.43;;;22.50;68.80;;;;;;5140737;27;20031;-34
2021/08/31 07:40:12;;;;;;;9.45;7.53;;;22.50;67.40;;;;;;5121905;27;20436;-35
2021/08/31 07:42:38;;;;;;;10.55;7.18;;;22.60;67.80;;;;;;5140173;27;20050;-37
2021/08/31 07:45:07;;;;;;;9.60;8.02;;;22.60;67.60;;;;;;5140589;27;20091;-36
2021/08/31 07:47:33;;;;;;;9.82;6.03;;;22.70;67.70;;;;;;5140197;27;20076;-35
2021/08/31 07:49:59;;;;;;;8.15;5.57;;;22.70;66.20;;;;;;5139816;27;20031;-37
2021/08/31 07:52:25;;;;;;;12.98;5.90;;;22.70;65.30;;;;;;5139802;27;20411;-35
2021/08/31 07:54:51;;;;;;;8.23;5.93;;;22.70;64.40;;;;;;5139488;27;20080;-35
2021/08/31 07:57:17;;;;;;;9.02;7.25;;;22.80;64.00;;;;;;5139582;27;20035;-35
2021/08/31 07:59:42;;;;;;;9.07;7.05;;;22.80;65.80;;;;;;5139705;27;20096;-36
2021/08/31 08:02:08;;;;;;;10.05;5.82;;;22.90;65.60;;;;;;5139622;27;20309;-35
2021/08/31 08:04:33;;;;;;;15.15;8.18;;;22.90;64.80;;;;;;5139660;27;20385;-38
2021/08/31 08:06:59;;;;;;;7.68;6.32;;;23.00;65.00;;;;;;5140002;27;20173;-38
2021/08/31 08:09:25;;;;;;;8.15;6.00;;;23.10;64.90;;;;;;5139829;27;20028;-37
2021/08/31 08:11:50;;;;;;;7.35;5.82;;;23.20;63.80;;;;;;5139795;27;20430;-39
2021/08/31 08:14:16;;;;;;;9.57;4.40;;;23.30;63.30;;;;;;5139451;27;20058;-36
2021/08/31 08:16:42;;;;;;;6.80;5.22;;;23.40;61.20;;;;;;5139509;27;20065;-36
2021/08/31 08:19:07;;;;;;;7.38;5.88;;;23.40;60.70;;;;;;5139436;27;20126;-36
2021/08/31 08:21:33;;;;;;;7.63;6.55;;;23.40;61.10;;;;;;5139073;27;20022;-37
2021/08/31 08:23:59;;;;;;;8.00;6.68;;;23.50;60.60;;;;;;5138842;27;20076;-36
2021/08/31 08:26:25;;;;;;;8.38;7.15;;;23.50;60.40;;;;;;5138990;27;20035;-37
2021/08/31 08:28:50;;;;;;;7.07;5.03;;;23.60;60.10;;;;;;5139598;27;20110;-39
2021/08/31 08:31:16;;;;;;;8.05;4.00;;;23.60;59.20;;;;;;5139327;27;20291;-37
2021/08/31 08:33:42;;;;;;;6.15;4.63;;;23.70;57.60;;;;;;5138737;27;20035;-38
2021/08/31 08:36:08;;;;;;;6.40;3.78;;;23.70;58.00;;;;;;5139092;27;20072;-35
2021/08/31 08:38:34;;;;;;;4.40;3.50;;;23.80;57.90;;;;;;5139128;27;20055;-36
2021/08/31 08:41:05;;;;;;;6.35;5.32;;;23.80;56.20;;;;;;5139094;27;20020;-37
2021/08/31 08:43:31;;;;;;;;;;;23.80;57.30;;;;;;5139589;27;20367;-35
2021/08/31 08:45:57;;;;;;;7.00;5.55;;;23.80;57.60;;;;;;5137703;27;20006;-35
2021/08/31 08:48:25;;;;;;;6.65;4.85;;;23.80;57.70;;;;;;5139040;27;20368;-35
2021/08/31 08:50:54;;;;;;;5.13;3.20;;;23.80;57.90;;;;;;5138857;27;20028;-35
2021/08/31 08:53:20;;;;;;;7.28;3.58;;;23.90;57.00;;;;;;5138569;27;20048;-35
2021/08/31 08:55:46;;;;;;;7.65;4.10;;;23.90;56.10;;;;;;5138623;27;20035;-37
2021/08/31 08:58:12;;;;;;;6.53;4.35;;;23.90;56.50;;;;;;5138642;27;20074;-35
2021/08/31 09:01:01;;;;;;;8.48;4.55;;;24.00;57.20;;;;;;5138441;27;20031;-34
2021/08/31 09:03:29;;;;;;;5.28;4.55;;;24.10;57.30;;;;;;5138529;27;20046;-37
2021/08/31 09:06:15;;;;;;;7.95;3.88;;;24.10;57.30;;;;;;5138175;27;20430;-37
2021/08/31 09:09:00;;;;;;;6.28;4.13;;;24.20;56.60;;;;;;5138969;27;20031;-35
2021/08/31 09:11:31;;;;;;;6.93;5.63;;;24.30;57.00;;;;;;5138224;27;20062;-35
2021/08/31 09:14:15;;;;;;;6.10;4.70;;;24.30;57.20;;;;;;5138740;27;20035;-35
2021/08/31 09:16:42;;;;;;;5.25;4.35;;;24.40;56.80;;;;;;5138336;27;20360;-35
2021/08/31 09:19:08;;;;;;;6.38;5.18;;;24.40;57.00;;;;;;5137732;27;20023;-37
2021/08/31 09:21:34;;;;;;;6.03;4.03;;;24.40;57.10;;;;;;5138107;27;20318;-37
2021/08/31 09:24:00;;;;;;;6.88;4.65;;;24.50;56.90;;;;;;5138272;27;20027;-37
2021/08/31 09:26:36;;;;;;;4.30;3.40;;;24.60;57.20;;;;;;5137790;27;20505;-38
2021/08/31 09:29:11;;;;;;;5.03;4.13;;;24.60;55.80;;;;;;5137821;27;20088;-35
2021/08/31 09:31:49;;;;;;;6.25;4.97;;;24.60;56.40;;;;;;5137969;27;20050;-37
2021/08/31 09:34:35;;;;;;;4.03;3.50;;;24.70;56.30;;;;;;5137484;27;20023;-36
2021/08/31 09:37:27;;;;;;;6.57;5.80;;;24.80;56.00;;;;;;5137885;27;20294;-37
2021/08/31 09:40:06;;;;;;;5.78;3.45;;;24.80;56.50;;;;;;5138041;27;20023;-36
2021/08/31 09:42:32;;;;;;;12.60;5.32;;;24.80;54.30;;;;;;5137788;27;20031;-35
2021/08/31 09:45:06;;;;;;;7.18;5.15;;;24.80;55.00;;;;;;5138159;27;20114;-36
2021/08/31 09:47:34;;;;;;;7.97;4.85;;;24.90;55.00;;;;;;5137858;27;20038;-36
2021/08/31 09:49:59;;;;;;;9.43;5.15;;;25.00;55.10;;;;;;5137835;27;20050;-34
2021/08/31 09:52:25;;;;;;;6.38;3.50;;;25.00;55.20;;;;;;5137616;27;20076;-35
2021/08/31 09:54:51;;;;;;;3.75;3.00;;;25.00;54.60;;;;;;5137281;27;20120;-35
2021/08/31 09:57:26;;;;;;;5.00;3.90;;;25.00;54.20;;;;;;5136883;27;20041;-35
2021/08/31 09:59:52;;;;;;;3.92;3.53;;;25.10;54.40;;;;;;5137190;27;20019;-37
2021/08/31 10:02:18;;;;;;;4.65;3.72;;;25.10;54.20;;;;;;5137085;27;20084;-34
2021/08/31 10:04:43;;;;;;;8.77;4.97;;;25.10;54.50;;;;;;5137303;27;20357;-35
2021/08/31 10:07:10;;;;;;;3.75;3.30;;;25.20;54.90;;;;;;5137382;27;20023;-35
2021/08/31 10:09:39;;;;;;;3.92;2.90;;;25.20;53.00;;;;;;5137477;27;20332;-41
2021/08/31 10:12:07;;;;;;;5.80;4.80;;;25.30;52.80;;;;;;5137104;27;20042;-35
2021/08/31 10:14:43;;;;;;;7.82;4.43;;;25.40;54.10;;;;;;5137683;27;20027;-35
2021/08/31 10:17:11;;;;;;;5.25;3.65;;;25.40;54.20;;;;;;5137065;27;20035;-40
2021/08/31 10:19:44;;;;;;;6.63;3.92;;;25.50;53.40;;;;;;5136401;27;20031;-37
2021/08/31 10:22:11;;;;;;;5.15;3.58;;;25.50;53.60;;;;;;5137035;27;20034;-38
2021/08/31 10:24:37;;;;;;;4.68;2.88;;;25.60;52.90;;;;;;5136706;27;20027;-36
2021/08/31 10:27:29;;;;;;;6.00;2.75;;;25.60;51.40;;;;;;5136809;27;20302;-35
2021/08/31 10:30:20;;;;;;;3.13;2.60;;;25.70;50.90;;;;;;5136951;27;20295;-39
2021/08/31 10:32:50;;;;;;;4.25;3.22;;;25.70;49.90;;;;;;5137077;27;20076;-36
2021/08/31 10:35:43;;;;;;;5.72;3.13;;;25.80;51.20;;;;;;5137230;27;20074;-37
2021/08/31 10:38:13;;;;;;;5.30;2.70;;;25.90;50.10;;;;;;5137235;27;20036;-35
2021/08/31 10:40:45;;;;;;;4.03;2.40;;;26.00;49.60;;;;;;5136814;27;20039;-37
2021/08/31 10:43:51;;;;;;;3.60;2.38;;;26.00;48.10;;;;;;5137246;27;20343;-34
2021/08/31 10:46:16;;;;;;;3.47;2.67;;;26.00;48.90;;;;;;5136678;27;20480;-37
2021/08/31 10:48:42;;;;;;;3.80;2.80;;;26.10;49.00;;;;;;5136717;27;20073;-35
2021/08/31 10:51:17;;;;;;;5.55;3.22;;;26.10;49.40;;;;;;5136178;27;20114;-35
2021/08/31 10:53:45;;;;;;;4.75;3.38;;;26.20;49.70;;;;;;5136601;27;20081;-35
2021/08/31 10:56:23;;;;;;;40.15;35.92;;;26.10;48.50;;;;;;5136118;27;20056;-35
2021/08/31 10:59:00;;;;;;;4.63;4.13;;;26.20;50.10;;;;;;5136497;27;20115;-37
2021/08/31 11:01:37;;;;;;;25.52;22.77;;;26.20;48.30;;;;;;5136268;27;20031;-35
2021/08/31 11:04:25;;;;;;;8.57;4.43;;;26.20;49.90;;;;;;5136432;27;20031;-38
2021/08/31 11:06:59;;;;;;;5.05;2.90;;;26.20;48.70;;;;;;5136495;27;20075;-36
2021/08/31 11:09:26;;;;;;;23.02;17.35;;;26.30;47.80;;;;;;5136122;27;20468;-36
2021/08/31 11:12:11;;;;;;;9.93;6.82;;;26.40;49.40;;;;;;5136182;28;20027;-35
2021/08/31 11:14:43;;;;;;;13.48;11.52;;;26.40;48.60;;;;;;5135905;28;20019;-35
2021/08/31 11:17:09;;;;;;;5.05;4.55;;;26.50;49.20;;;;;;5136321;28;20039;-37
2021/08/31 11:19:35;;;;;;;12.82;9.07;;;26.40;47.90;;;;;;5136349;28;20026;-36
2021/08/31 11:22:00;;;;;;;12.50;8.20;;;26.40;48.70;;;;;;5136192;28;20042;-37
2021/08/31 11:24:26;;;;;;;8.07;7.20;;;26.50;49.00;;;;;;5136123;28;20379;-34
2021/08/31 11:27:00;;;;;;;4.57;4.10;;;26.50;48.70;;;;;;5136231;28;20310;-34
2021/08/31 11:29:26;;;;;;;6.80;3.33;;;26.60;47.40;;;;;;5136276;28;20367;-35
2021/08/31 11:32:00;;;;;;;7.97;5.00;;;26.60;47.30;;;;;;5135866;28;20030;-35
2021/08/31 11:34:26;;;;;;;3.33;3.03;;;26.80;48.10;;;;;;5135899;28;20072;-35
2021/08/31 11:37:02;;;;;;;4.53;3.42;;;26.90;48.80;;;;;;5136057;28;20019;-36
2021/08/31 11:39:28;;;;;;;4.40;2.70;;;27.10;46.90;;;;;;5136001;28;20023;-37
2021/08/31 11:41:54;;;;;;;3.72;3.10;;;27.10;46.00;;;;;;5135823;28;20032;-37
2021/08/31 11:44:24;;;;;;;6.20;5.03;;;27.30;46.30;;;;;;5135852;28;20429;-35
2021/08/31 11:46:50;;;;;;;;;;;27.30;46.90;;;;;;5136815;28;20023;-35
2021/08/31 11:49:26;;;;;;;6.15;3.95;;;27.30;47.00;;;;;;5136453;28;20229;-37
2021/08/31 11:51:59;;;;;;;3.38;2.97;;;27.40;47.10;;;;;;5135908;28;20023;-35
2021/08/31 11:54:27;;;;;;;4.40;2.80;;;27.40;46.90;;;;;;5135640;28;20039;-37
2021/08/31 11:56:58;;;;;;;2.60;2.40;;;27.50;45.90;;;;;;5135712;28;20384;-35
2021/08/31 11:59:36;;;;;;;3.88;3.05;;;27.60;46.10;;;;;;5135980;28;20027;-35
2021/08/31 12:02:24;;;;;;;3.50;2.50;;;27.70;45.00;;;;;;5135862;28;20042;-34
2021/08/31 12:04:57;;;;;;;2.85;2.55;;;27.80;44.70;;;;;;5135836;28;20058;-39
2021/08/31 12:07:31;;;;;;;5.30;3.45;;;27.90;44.40;;;;;;5136099;28;20032;-37
2021/08/31 12:10:03;;;;;;;5.95;3.10;;;28.00;45.60;;;;;;5136184;28;20118;-34
2021/08/31 12:12:30;;;;;;;2.90;2.60;;;28.20;44.90;;;;;;5135801;28;20130;-36
2021/08/31 12:14:56;;;;;;;4.88;3.22;;;28.30;44.30;;;;;;5135921;28;20030;-36
2021/08/31 12:17:44;;;;;;;5.82;2.85;;;28.50;44.90;;;;;;5135682;28;20047;-36
2021/08/31 12:20:10;;;;;;;3.38;2.53;;;28.70;44.00;;;;;;5136984;27;20030;-37
2021/08/31 12:22:47;;;;;;;3.17;2.65;;;28.80;44.00;;;;;;5139199;27;20035;-36
2021/08/31 12:25:14;;;;;;;3.75;2.78;;;28.90;44.10;;;;;;5139547;27;20023;-36
2021/08/31 12:27:43;;;;;;;4.18;2.95;;;28.90;43.60;;;;;;5139631;27;20407;-37
2021/08/31 12:30:10;;;;;;;4.53;3.55;;;28.90;42.60;;;;;;5139451;27;20023;-37
2021/08/31 12:32:37;;;;;;;6.80;3.42;;;28.80;43.50;;;;;;5138738;27;20039;-34
2021/08/31 12:35:29;;;;;;;4.22;2.90;;;28.80;44.00;;;;;;5139361;27;20344;-36
2021/08/31 12:38:22;;;;;;;5.78;2.97;;;28.80;44.00;;;;;;5139402;27;20031;-35